Time;durP1;ratioP1;P1;durP2;ratioP2;P2;SDS_P1;SDS_P2;PMS_P1;PMS_P2;Temp;Humidity;BMP_temperature;BMP_pressure;BME280_temperature;BME280_humidity;BME280_pressure;Samples;Min_cycle;Max_cycle;Signal;HPM_P1;HPM_P2
2023/05/25 00:01:57;;;;;;;0.80;0.80;;;;;;;;;;6214095;23;20170;-87
2023/05/25 00:04:29;;;;;;;0.77;0.77;;;;;;;;;;6214368;23;20178;-88
2023/05/25 00:06:59;;;;;;;1.43;1.33;;;;;;;;;;6214020;23;20191;-87
2023/05/25 00:09:28;;;;;;;1.87;1.77;;;;;;;;;;6213980;23;20186;-88
2023/05/25 00:11:58;;;;;;;1.77;0.80;;;;;;;;;;6213585;23;20167;-84
2023/05/25 00:14:27;;;;;;;3.67;2.13;;;;;;;;;;6214123;23;20197;-88
2023/05/25 00:17:02;;;;;;;1.40;1.40;;;;;;;;;;6213694;23;20170;-88
2023/05/25 00:19:32;;;;;;;5.90;1.40;;;;;;;;;;6213652;23;20219;-87
2023/05/25 00:22:02;;;;;;;1.20;1.20;;;;;;;;;;6213730;23;20186;-88
2023/05/25 00:24:34;;;;;;;0.90;0.90;;;;;;;;;;6214402;23;20175;-87
2023/05/25 00:27:02;;;;;;;1.27;1.27;;;;;;;;;;6213309;23;20209;-87
2023/05/25 00:29:31;;;;;;;2.80;1.60;;;;;;;;;;6214413;23;20181;-88
2023/05/25 00:31:59;;;;;;;0.70;0.70;;;;;;;;;;6213693;23;20171;-88
2023/05/25 00:34:28;;;;;;;0.60;0.60;;;;;;;;;;6213576;23;20183;-88
2023/05/25 00:36:56;;;;;;;0.70;0.70;;;;;;;;;;6214175;23;20230;-88
2023/05/25 00:39:26;;;;;;;3.13;1.90;;;;;;;;;;6213787;23;20174;-88
2023/05/25 00:41:55;;;;;;;2.57;2.47;;;;;;;;;;6213661;23;20234;-88
2023/05/25 00:44:23;;;;;;;0.70;0.70;;;;;;;;;;6213514;23;20178;-87
2023/05/25 00:46:53;;;;;;;2.27;1.27;;;;;;;;;;6214138;23;20202;-87
2023/05/25 00:49:22;;;;;;;1.00;1.00;;;;;;;;;;6213894;23;20181;-88
2023/05/25 00:51:52;;;;;;;2.03;1.17;;;;;;;;;;6213594;23;20171;-88
2023/05/25 00:54:40;;;;;;;0.90;0.90;;;;;;;;;;6213706;23;20211;-88
2023/05/25 00:57:11;;;;;;;3.10;1.73;;;;;;;;;;6214563;23;20170;-88
2023/05/25 00:59:40;;;;;;;2.77;2.67;;;;;;;;;;6213269;23;20229;-88
2023/05/25 01:02:10;;;;;;;2.17;2.07;;;;;;;;;;6213618;23;20178;-88
2023/05/25 01:04:44;;;;;;;1.20;1.20;;;;;;;;;;6213888;23;20172;-88
2023/05/25 01:07:16;;;;;;;0.60;0.60;;;;;;;;;;6213633;23;20195;-88
2023/05/25 01:09:47;;;;;;;1.10;1.10;;;;;;;;;;6214045;23;20178;-88
2023/05/25 01:12:18;;;;;;;1.77;1.77;;;;;;;;;;6213520;23;20178;-88
2023/05/25 01:14:52;;;;;;;0.80;0.80;;;;;;;;;;6213965;23;20181;-88
2023/05/25 01:17:20;;;;;;;0.70;0.70;;;;;;;;;;6213452;23;20178;-88
2023/05/25 01:19:51;;;;;;;1.63;1.63;;;;;;;;;;6215652;23;20201;-88
2023/05/25 01:22:56;;;;;;;1.83;1.73;;;;;;;;;;6215879;23;20287;-88
2023/05/25 01:25:28;;;;;;;4.63;2.77;;;;;;;;;;6215459;23;20186;-88
2023/05/25 01:27:58;;;;;;;4.20;2.80;;;;;;;;;;6215603;23;20202;-88
2023/05/25 01:30:27;;;;;;;1.77;1.67;;;;;;;;;;6215540;23;20167;-87
2023/05/25 01:32:56;;;;;;;4.43;3.37;;;;;;;;;;6214891;23;20183;-88
2023/05/25 01:35:25;;;;;;;1.43;1.30;;;;;;;;;;6215605;23;20225;-88
2023/05/25 01:37:53;;;;;;;1.50;1.50;;;;;;;;;;6215358;23;20177;-88
2023/05/25 01:40:27;;;;;;;2.77;1.97;;;;;;;;;;6215511;23;20214;-88
2023/05/25 01:42:58;;;;;;;2.20;2.10;;;;;;;;;;6215377;23;20175;-88
2023/05/25 01:45:33;;;;;;;4.27;2.43;;;;;;;;;;6215238;23;20170;-88
2023/05/25 01:48:05;;;;;;;2.10;1.40;;;;;;;;;;6215291;23;20183;-88
2023/05/25 01:50:37;;;;;;;2.43;2.30;;;;;;;;;;6215472;23;20206;-88
2023/05/25 01:53:10;;;;;;;1.53;1.53;;;;;;;;;;6215358;23;20202;-88
2023/05/25 01:55:53;;;;;;;1.40;1.30;;;;;;;;;;6215425;23;20198;-89
2023/05/25 01:58:22;;;;;;;2.63;2.47;;;;;;;;;;6214355;23;20167;-88
2023/05/25 02:00:52;;;;;;;1.30;0.90;;;;;;;;;;6215108;23;20171;-88
2023/05/25 02:03:20;;;;;;;3.20;2.30;;;;;;;;;;6215194;23;20178;-88
2023/05/25 02:05:49;;;;;;;7.33;1.67;;;;;;;;;;6214716;23;20174;-88
2023/05/25 02:08:19;;;;;;;1.60;1.53;;;;;;;;;;6215204;23;20198;-88
2023/05/25 02:10:49;;;;;;;1.67;1.57;;;;;;;;;;6214891;23;20186;-88
2023/05/25 02:13:18;;;;;;;2.63;2.50;;;;;;;;;;6215057;23;20201;-88
2023/05/25 02:15:49;;;;;;;1.97;1.87;;;;;;;;;;6214703;23;20171;-88
2023/05/25 02:18:18;;;;;;;1.33;1.33;;;;;;;;;;6215127;23;20249;-88
2023/05/25 02:20:47;;;;;;;0.70;0.70;;;;;;;;;;6215107;23;20232;-88
2023/05/25 02:23:17;;;;;;;0.60;0.60;;;;;;;;;;6215114;23;20210;-88
2023/05/25 02:25:46;;;;;;;1.17;1.17;;;;;;;;;;6215596;23;20245;-88
2023/05/25 02:28:16;;;;;;;3.03;2.07;;;;;;;;;;6215025;23;20203;-88
2023/05/25 02:30:45;;;;;;;0.70;0.70;;;;;;;;;;6214259;23;20260;-89
2023/05/25 02:33:14;;;;;;;0.70;0.70;;;;;;;;;;6214489;23;20178;-89
2023/05/25 02:35:43;;;;;;;4.27;3.30;;;;;;;;;;6215419;23;20206;-89
2023/05/25 02:38:12;;;;;;;0.60;0.60;;;;;;;;;;6214757;23;20229;-89
2023/05/25 02:40:40;;;;;;;1.10;1.10;;;;;;;;;;6214689;23;20260;-89
2023/05/25 02:43:09;;;;;;;2.77;2.60;;;;;;;;;;6214815;23;20285;-89
2023/05/25 02:45:37;;;;;;;1.10;1.10;;;;;;;;;;6214905;23;20185;-88
2023/05/25 02:48:07;;;;;;;1.63;1.53;;;;;;;;;;6214559;23;20191;-88
2023/05/25 02:50:36;;;;;;;0.70;0.70;;;;;;;;;;6214995;23;20179;-89
2023/05/25 02:53:04;;;;;;;1.00;1.00;;;;;;;;;;6214907;23;20270;-88
2023/05/25 02:55:33;;;;;;;2.37;2.27;;;;;;;;;;6214120;23;20186;-85
2023/05/25 02:58:01;;;;;;;2.40;2.30;;;;;;;;;;6214082;23;20255;-84
2023/05/25 03:00:30;;;;;;;1.67;1.57;;;;;;;;;;6214499;23;20178;-85
2023/05/25 03:02:59;;;;;;;1.47;1.37;;;;;;;;;;6213873;23;20182;-85
2023/05/25 03:05:29;;;;;;;0.83;0.83;;;;;;;;;;6214116;23;20202;-85
2023/05/25 03:07:58;;;;;;;1.77;1.73;;;;;;;;;;6214424;23;20191;-84
2023/05/25 03:10:27;;;;;;;0.60;0.60;;;;;;;;;;6214399;23;20202;-85
2023/05/25 03:12:55;;;;;;;1.43;1.43;;;;;;;;;;6213944;23;20195;-85
2023/05/25 03:15:24;;;;;;;2.80;2.57;;;;;;;;;;6214207;23;20177;-85
2023/05/25 03:17:59;;;;;;;12.13;4.63;;;;;;;;;;6213950;23;20217;-84
2023/05/25 03:20:31;;;;;;;13.30;3.13;;;;;;;;;;6213716;23;20232;-84
2023/05/25 03:23:00;;;;;;;0.70;0.70;;;;;;;;;;6214505;23;20179;-84
2023/05/25 03:25:29;;;;;;;2.00;1.77;;;;;;;;;;6213793;23;20185;-84
2023/05/25 03:27:58;;;;;;;0.70;0.70;;;;;;;;;;6213451;23;20202;-84
2023/05/25 03:30:26;;;;;;;1.33;1.33;;;;;;;;;;6213944;23;20178;-84
2023/05/25 03:32:55;;;;;;;2.10;2.03;;;;;;;;;;6214066;23;20305;-84
2023/05/25 03:35:23;;;;;;;0.77;0.77;;;;;;;;;;6214008;23;20206;-84
2023/05/25 03:37:53;;;;;;;0.90;0.90;;;;;;;;;;6213882;23;20239;-85
2023/05/25 03:40:25;;;;;;;1.33;1.33;;;;;;;;;;6213751;23;20185;-84
2023/05/25 03:42:54;;;;;;;0.90;0.90;;;;;;;;;;6214346;23;20174;-88
2023/05/25 03:45:22;;;;;;;2.40;2.20;;;;;;;;;;6213711;23;20181;-88
2023/05/25 03:47:51;;;;;;;1.17;1.17;;;;;;;;;;6213997;23;20182;-88
2023/05/25 03:50:19;;;;;;;1.53;1.43;;;;;;;;;;6214211;23;20175;-89
2023/05/25 03:52:51;;;;;;;5.20;1.63;;;;;;;;;;6214163;23;20183;-88
2023/05/25 03:55:23;;;;;;;1.57;1.47;;;;;;;;;;6214033;23;20171;-88
2023/05/25 03:57:55;;;;;;;2.60;1.70;;;;;;;;;;6214393;23;20254;-88
2023/05/25 04:00:24;;;;;;;4.13;3.77;;;;;;;;;;6214211;23;20261;-89
2023/05/25 04:02:52;;;;;;;5.07;1.97;;;;;;;;;;6213368;23;20174;-88
2023/05/25 04:05:21;;;;;;;1.17;1.17;;;;;;;;;;6214525;23;20273;-88
2023/05/25 04:07:50;;;;;;;2.00;1.70;;;;;;;;;;6213508;23;20190;-85
2023/05/25 04:10:20;;;;;;;0.90;0.90;;;;;;;;;;6213168;23;20179;-84
2023/05/25 04:12:50;;;;;;;2.43;2.23;;;;;;;;;;6213454;23;20255;-84
2023/05/25 04:15:20;;;;;;;1.40;1.40;;;;;;;;;;6213672;23;20171;-84
2023/05/25 04:17:48;;;;;;;2.00;1.90;;;;;;;;;;6213390;23;20173;-84
2023/05/25 04:20:17;;;;;;;4.97;3.07;;;;;;;;;;6213607;23;20175;-84
2023/05/25 04:22:46;;;;;;;3.30;2.47;;;;;;;;;;6214071;23;20216;-84
2023/05/25 04:25:15;;;;;;;2.40;2.00;;;;;;;;;;6213443;23;20254;-85
2023/05/25 04:27:45;;;;;;;0.60;0.60;;;;;;;;;;6213357;23;20190;-84
2023/05/25 04:30:14;;;;;;;4.90;2.73;;;;;;;;;;6213482;23;20190;-88
2023/05/25 04:32:45;;;;;;;2.50;2.40;;;;;;;;;;6214227;23;20174;-89
2023/05/25 04:35:14;;;;;;;1.77;1.67;;;;;;;;;;6213280;23;20270;-88
2023/05/25 04:37:43;;;;;;;0.80;0.80;;;;;;;;;;6213851;23;20194;-88
2023/05/25 04:40:12;;;;;;;3.93;2.20;;;;;;;;;;6213501;23;20175;-85
2023/05/25 04:42:42;;;;;;;2.10;2.00;;;;;;;;;;6213108;23;20267;-85
2023/05/25 04:45:16;;;;;;;1.07;0.93;;;;;;;;;;6213096;23;20171;-84
2023/05/25 04:47:46;;;;;;;0.73;0.73;;;;;;;;;;6213762;23;20268;-84
2023/05/25 04:50:14;;;;;;;2.93;1.67;;;;;;;;;;6213154;23;20251;-85
2023/05/25 04:52:43;;;;;;;2.50;2.33;;;;;;;;;;6213361;23;20201;-85
2023/05/25 04:55:12;;;;;;;1.33;1.33;;;;;;;;;;6215346;23;20227;-85
2023/05/25 04:57:40;;;;;;;1.50;1.50;;;;;;;;;;6215293;23;20185;-84
2023/05/25 05:00:11;;;;;;;3.37;3.13;;;;;;;;;;6215164;23;20186;-84
2023/05/25 05:02:42;;;;;;;1.87;0.90;;;;;;;;;;6215406;23;20175;-84
2023/05/25 05:05:13;;;;;;;0.70;0.70;;;;;;;;;;6215537;23;20172;-84
2023/05/25 05:07:42;;;;;;;5.93;3.53;;;;;;;;;;6215117;23;20175;-85
2023/05/25 05:10:10;;;;;;;2.33;2.20;;;;;;;;;;6214921;23;20195;-85
2023/05/25 05:12:39;;;;;;;4.67;1.77;;;;;;;;;;6215321;23;20235;-84
2023/05/25 05:15:08;;;;;;;4.40;3.17;;;;;;;;;;6215301;23;20181;-85
2023/05/25 05:17:37;;;;;;;3.90;2.57;;;;;;;;;;6215445;23;20168;-85
2023/05/25 05:20:08;;;;;;;4.43;2.17;;;;;;;;;;6215232;23;20187;-85
2023/05/25 05:22:38;;;;;;;2.73;2.53;;;;;;;;;;6215133;23;20175;-84
2023/05/25 05:25:07;;;;;;;1.00;1.00;;;;;;;;;;6214355;23;20226;-84
2023/05/25 05:27:35;;;;;;;2.00;1.57;;;;;;;;;;6215440;23;20230;-85
2023/05/25 05:30:08;;;;;;;2.13;1.97;;;;;;;;;;6215019;23;20205;-84
2023/05/25 05:32:36;;;;;;;2.30;2.20;;;;;;;;;;6209540;23;20182;-84
2023/05/25 05:35:07;;;;;;;11.50;1.30;;;;;;;;;;6215522;23;20177;-85
2023/05/25 05:37:35;;;;;;;1.37;1.37;;;;;;;;;;6214627;23;20175;-85
2023/05/25 05:40:04;;;;;;;3.00;1.97;;;;;;;;;;6214765;23;20170;-84
2023/05/25 05:42:33;;;;;;;2.80;2.60;;;;;;;;;;6215344;23;20189;-83
2023/05/25 05:45:01;;;;;;;3.40;2.53;;;;;;;;;;6214814;23;20180;-84
2023/05/25 05:47:30;;;;;;;3.30;2.80;;;;;;;;;;6215255;23;20221;-84
2023/05/25 05:49:58;;;;;;;4.50;3.50;;;;;;;;;;6214738;23;20195;-84
2023/05/25 05:52:28;;;;;;;6.50;3.77;;;;;;;;;;6215568;23;20190;-84
2023/05/25 05:54:57;;;;;;;3.33;1.67;;;;;;;;;;6214865;23;20235;-84
2023/05/25 05:57:27;;;;;;;2.13;1.93;;;;;;;;;;6214320;23;20183;-84
2023/05/25 05:59:55;;;;;;;1.87;1.77;;;;;;;;;;6215259;23;20177;-85
2023/05/25 06:02:24;;;;;;;1.73;1.67;;;;;;;;;;6214794;23;20184;-84
2023/05/25 06:04:53;;;;;;;1.97;1.63;;;;;;;;;;6214516;23;20236;-84
2023/05/25 06:07:21;;;;;;;4.23;3.40;;;;;;;;;;6214457;23;20171;-84
2023/05/25 06:09:51;;;;;;;2.10;1.80;;;;;;;;;;6214750;23;20195;-85
2023/05/25 06:12:20;;;;;;;2.13;2.03;;;;;;;;;;6214571;23;20183;-82
2023/05/25 06:14:50;;;;;;;1.60;1.50;;;;;;;;;;6214432;23;20173;-84
2023/05/25 06:17:19;;;;;;;3.73;3.37;;;;;;;;;;6215005;23;20180;-84
2023/05/25 06:19:48;;;;;;;2.33;1.67;;;;;;;;;;6214047;23;20169;-85
2023/05/25 06:22:17;;;;;;;2.00;1.27;;;;;;;;;;6213965;23;20178;-84
2023/05/25 06:24:45;;;;;;;2.83;2.00;;;;;;;;;;6214442;23;20173;-84
2023/05/25 06:27:16;;;;;;;2.23;1.93;;;;;;;;;;6214360;23;20206;-84
2023/05/25 06:29:45;;;;;;;2.40;2.20;;;;;;;;;;6214311;23;20288;-84
2023/05/25 06:32:13;;;;;;;3.07;2.87;;;;;;;;;;6214648;23;20182;-84
2023/05/25 06:34:42;;;;;;;2.10;1.90;;;;;;;;;;6214393;23;20188;-84
2023/05/25 06:37:11;;;;;;;2.60;1.40;;;;;;;;;;6214161;23;20176;-84
2023/05/25 06:39:41;;;;;;;5.77;3.50;;;;;;;;;;6214303;23;20201;-84
2023/05/25 06:42:11;;;;;;;2.13;1.90;;;;;;;;;;6214476;23;20236;-85
2023/05/25 06:44:41;;;;;;;1.37;1.37;;;;;;;;;;6214521;23;20181;-85
2023/05/25 06:47:09;;;;;;;6.60;4.00;;;;;;;;;;6214244;23;20235;-84
2023/05/25 06:49:38;;;;;;;1.73;1.63;;;;;;;;;;6214713;23;20193;-85
2023/05/25 06:52:06;;;;;;;3.37;2.17;;;;;;;;;;6214563;23;20200;-84
2023/05/25 06:54:35;;;;;;;1.23;1.13;;;;;;;;;;6214578;23;20265;-84
2023/05/25 06:57:03;;;;;;;1.80;1.70;;;;;;;;;;6214097;23;20184;-84
2023/05/25 06:59:32;;;;;;;4.17;2.93;;;;;;;;;;6214910;23;20205;-85
2023/05/25 07:02:02;;;;;;;10.53;3.13;;;;;;;;;;6214681;23;20264;-84
2023/05/25 07:04:31;;;;;;;1.60;1.50;;;;;;;;;;6214261;23;20187;-84
2023/05/25 07:07:00;;;;;;;1.80;1.63;;;;;;;;;;6214243;23;20172;-84
2023/05/25 07:09:32;;;;;;;3.40;2.03;;;;;;;;;;6214323;23;20260;-84
2023/05/25 07:12:01;;;;;;;5.03;3.57;;;;;;;;;;6213673;23;20254;-84
2023/05/25 07:14:29;;;;;;;7.10;3.03;;;;;;;;;;6214830;23;20185;-83
2023/05/25 07:16:58;;;;;;;2.53;2.03;;;;;;;;;;6214176;23;20181;-84
2023/05/25 07:19:28;;;;;;;2.37;2.17;;;;;;;;;;6214439;23;20362;-84
2023/05/25 07:21:57;;;;;;;2.03;1.93;;;;;;;;;;6213890;23;20220;-84
2023/05/25 07:24:26;;;;;;;3.07;2.87;;;;;;;;;;6214556;23;20197;-83
2023/05/25 07:26:54;;;;;;;2.77;2.57;;;;;;;;;;6214248;23;20198;-84
2023/05/25 07:29:25;;;;;;;1.17;1.17;;;;;;;;;;6213596;23;20173;-84
2023/05/25 07:31:57;;;;;;;2.17;1.77;;;;;;;;;;6211992;23;20263;-84
2023/05/25 07:34:25;;;;;;;1.83;1.53;;;;;;;;;;6214227;23;20171;-84
2023/05/25 07:36:56;;;;;;;7.27;1.30;;;;;;;;;;6215889;23;20182;-84
2023/05/25 07:39:25;;;;;;;2.43;2.30;;;;;;;;;;6214915;23;20184;-84
2023/05/25 07:41:54;;;;;;;2.50;2.00;;;;;;;;;;6214899;23;20201;-84
2023/05/25 07:44:23;;;;;;;2.80;2.30;;;;;;;;;;6215481;23;20185;-84
2023/05/25 07:46:51;;;;;;;1.40;1.30;;;;;;;;;;6215278;23;20255;-84
2023/05/25 07:49:20;;;;;;;2.00;1.60;;;;;;;;;;6215466;23;20177;-84
2023/05/25 07:51:49;;;;;;;2.57;1.60;;;;;;;;;;6214844;23;20232;-84
2023/05/25 07:54:19;;;;;;;3.20;2.77;;;;;;;;;;6215460;23;20204;-83
2023/05/25 07:56:48;;;;;;;5.57;2.90;;;;;;;;;;6214728;23;20178;-83
2023/05/25 07:59:17;;;;;;;3.17;1.73;;;;;;;;;;6214898;23;20181;-84
2023/05/25 08:01:46;;;;;;;2.93;2.30;;;;;;;;;;6214759;23;20214;-83
2023/05/25 08:04:14;;;;;;;1.27;1.27;;;;;;;;;;6214047;23;20177;-84
2023/05/25 08:06:44;;;;;;;3.07;2.80;;;;;;;;;;6214553;23;20170;-84
2023/05/25 08:09:13;;;;;;;4.03;2.40;;;;;;;;;;6214949;23;20245;-84
2023/05/25 08:11:46;;;;;;;1.37;1.20;;;;;;;;;;6215050;23;20288;-84
2023/05/25 08:14:16;;;;;;;13.20;2.20;;;;;;;;;;6213276;23;20177;-84
2023/05/25 08:16:45;;;;;;;0.97;0.97;;;;;;;;;;6214452;23;20225;-84
2023/05/25 08:19:14;;;;;;;3.90;3.00;;;;;;;;;;6213695;23;20185;-83
2023/05/25 08:21:42;;;;;;;2.63;2.43;;;;;;;;;;6213677;23;20230;-84
2023/05/25 08:24:11;;;;;;;2.20;1.93;;;;;;;;;;6214550;23;20293;-84
2023/05/25 08:26:46;;;;;;;13.40;1.97;;;;;;;;;;6213582;23;20223;-84
2023/05/25 08:29:24;;;;;;;3.83;1.40;;;;;;;;;;6216399;23;20178;-86
2023/05/25 08:31:52;;;;;;;3.47;2.67;;;;;;;;;;6215945;23;20226;-84
2023/05/25 08:34:21;;;;;;;1.80;1.60;;;;;;;;;;6215821;23;20263;-85
2023/05/25 08:36:50;;;;;;;1.97;1.57;;;;;;;;;;6216290;23;20261;-85
2023/05/25 08:39:18;;;;;;;4.27;2.10;;;;;;;;;;6216152;23;20209;-85
2023/05/25 08:41:47;;;;;;;2.37;1.93;;;;;;;;;;6215585;23;20284;-85
2023/05/25 08:44:15;;;;;;;2.43;2.10;;;;;;;;;;6215630;23;20174;-85
2023/05/25 08:46:47;;;;;;;1.37;1.27;;;;;;;;;;6215448;23;20252;-84
2023/05/25 08:49:16;;;;;;;6.93;2.30;;;;;;;;;;6215780;23;20226;-85
2023/05/25 08:51:49;;;;;;;1.43;1.33;;;;;;;;;;6215341;23;20236;-85
2023/05/25 08:54:20;;;;;;;3.33;1.70;;;;;;;;;;6215369;23;20175;-84
2023/05/25 08:56:50;;;;;;;2.73;2.53;;;;;;;;;;6215639;23;20209;-84
2023/05/25 08:59:23;;;;;;;4.73;1.90;;;;;;;;;;6215247;23;20214;-85
2023/05/25 09:01:56;;;;;;;2.87;2.10;;;;;;;;;;6215752;23;20180;-84
2023/05/25 09:04:26;;;;;;;2.07;1.90;;;;;;;;;;6215509;23;20186;-85
2023/05/25 09:06:56;;;;;;;1.83;1.73;;;;;;;;;;6214972;23;20254;-85
2023/05/25 09:09:38;;;;;;;1.23;0.93;;;;;;;;;;6215471;23;20186;-84
2023/05/25 09:12:08;;;;;;;1.87;1.70;;;;;;;;;;6215877;23;20226;-85
2023/05/25 09:14:44;;;;;;;2.10;2.00;;;;;;;;;;6215377;23;20178;-85
2023/05/25 09:17:14;;;;;;;2.67;1.87;;;;;;;;;;6215124;23;20180;-84
2023/05/25 09:19:43;;;;;;;1.03;1.03;;;;;;;;;;6215728;23;20261;-85
2023/05/25 09:22:12;;;;;;;3.43;3.10;;;;;;;;;;6215729;23;20167;-83
2023/05/25 09:24:44;;;;;;;4.67;2.10;;;;;;;;;;6214716;23;20180;-84
2023/05/25 09:27:14;;;;;;;4.93;2.23;;;;;;;;;;6216080;23;20230;-83
2023/05/25 09:29:43;;;;;;;3.90;2.57;;;;;;;;;;6215397;23;20179;-84
2023/05/25 09:32:11;;;;;;;1.53;1.43;;;;;;;;;;6214964;23;20195;-83
2023/05/25 09:34:43;;;;;;;2.80;2.27;;;;;;;;;;6214679;23;20226;-83
2023/05/25 09:37:12;;;;;;;1.67;1.57;;;;;;;;;;6215118;23;20254;-84
2023/05/25 09:39:42;;;;;;;2.50;1.40;;;;;;;;;;6214212;23;20255;-84
2023/05/25 09:42:11;;;;;;;4.00;1.40;;;;;;;;;;6214501;23;20206;-84
2023/05/25 09:44:41;;;;;;;1.80;1.50;;;;;;;;;;6215133;23;20175;-85
2023/05/25 09:47:12;;;;;;;3.07;1.90;;;;;;;;;;6214785;23;20174;-84
2023/05/25 09:49:43;;;;;;;5.90;1.50;;;;;;;;;;6214650;23;20253;-84
2023/05/25 09:52:12;;;;;;;5.80;2.73;;;;;;;;;;6214917;23;20243;-84
2023/05/25 09:54:44;;;;;;;1.30;1.30;;;;;;;;;;6215145;23;20170;-84
2023/05/25 09:57:13;;;;;;;1.93;1.70;;;;;;;;;;6214491;23;20213;-84
2023/05/25 09:59:42;;;;;;;2.90;2.10;;;;;;;;;;6214983;23;20251;-84
2023/05/25 10:02:10;;;;;;;5.50;2.67;;;;;;;;;;6215177;23;20224;-84
2023/05/25 10:04:40;;;;;;;2.63;1.73;;;;;;;;;;6215194;23;20175;-84
2023/05/25 10:07:10;;;;;;;3.63;1.50;;;;;;;;;;6214657;23;20180;-84
2023/05/25 10:09:40;;;;;;;3.17;2.27;;;;;;;;;;6214682;23;20193;-84
2023/05/25 10:12:09;;;;;;;6.87;1.47;;;;;;;;;;6215067;23;20206;-84
2023/05/25 10:14:38;;;;;;;2.97;1.87;;;;;;;;;;6214111;23;20194;-84
2023/05/25 10:17:07;;;;;;;4.30;1.93;;;;;;;;;;6215140;23;20176;-84
2023/05/25 10:19:40;;;;;;;4.93;1.67;;;;;;;;;;6214569;23;20174;-84
2023/05/25 10:22:13;;;;;;;3.10;2.23;;;;;;;;;;6214542;23;20197;-84
2023/05/25 10:24:44;;;;;;;5.97;2.50;;;;;;;;;;6215073;23;20179;-84
2023/05/25 10:27:17;;;;;;;1.97;1.83;;;;;;;;;;6214935;23;20210;-84
2023/05/25 10:29:53;;;;;;;2.23;1.60;;;;;;;;;;6214379;23;20186;-84
2023/05/25 10:32:21;;;;;;;2.17;1.43;;;;;;;;;;6214719;23;20194;-85
2023/05/25 10:34:51;;;;;;;8.20;2.83;;;;;;;;;;6214959;23;20190;-84
2023/05/25 10:37:23;;;;;;;8.50;2.07;;;;;;;;;;6215241;23;20183;-84
2023/05/25 10:39:53;;;;;;;6.20;3.57;;;;;;;;;;6214700;23;20183;-85
2023/05/25 10:42:21;;;;;;;5.77;2.27;;;;;;;;;;6214802;23;20212;-84
2023/05/25 10:44:50;;;;;;;9.63;1.10;;;;;;;;;;6215120;23;20274;-84
2023/05/25 10:47:19;;;;;;;3.80;1.70;;;;;;;;;;6214509;23;20175;-84
2023/05/25 10:49:54;;;;;;;6.13;2.10;;;;;;;;;;6214971;23;20186;-84
2023/05/25 10:52:27;;;;;;;9.30;3.07;;;;;;;;;;6214163;23;20186;-84
2023/05/25 10:54:57;;;;;;;2.80;1.33;;;;;;;;;;6213828;23;20257;-84
2023/05/25 10:57:26;;;;;;;1.33;1.23;;;;;;;;;;6214099;23;20198;-84
2023/05/25 10:59:58;;;;;;;3.60;1.23;;;;;;;;;;6214972;23;20252;-83
2023/05/25 11:02:28;;;;;;;2.37;1.37;;;;;;;;;;6214182;23;20178;-83
2023/05/25 11:05:15;;;;;;;6.43;1.63;;;;;;;;;;6214510;23;20179;-83
2023/05/25 11:07:54;;;;;;;2.73;2.13;;;;;;;;;;6214372;23;20180;-83
2023/05/25 11:10:45;;;;;;;2.37;1.53;;;;;;;;;;6214439;23;20174;-84
2023/05/25 11:13:24;;;;;;;5.30;2.50;;;;;;;;;;6213882;23;20209;-83
2023/05/25 11:16:11;;;;;;;4.57;2.73;;;;;;;;;;6214456;23;20261;-83
2023/05/25 11:18:42;;;;;;;3.60;2.20;;;;;;;;;;6214090;23;20218;-84
2023/05/25 11:21:14;;;;;;;1.53;1.43;;;;;;;;;;6213680;23;20170;-83
2023/05/25 11:23:58;;;;;;;1.43;1.23;;;;;;;;;;6214014;23;20274;-83
2023/05/25 11:26:28;;;;;;;1.17;1.07;;;;;;;;;;6213680;23;20175;-82
2023/05/25 11:28:58;;;;;;;3.37;1.63;;;;;;;;;;6213818;23;20170;-84
2023/05/25 11:31:31;;;;;;;0.73;0.73;;;;;;;;;;6214057;23;20175;-83
2023/05/25 11:34:10;;;;;;;2.57;1.33;;;;;;;;;;6214459;23;20190;-83
2023/05/25 11:36:40;;;;;;;6.17;2.93;;;;;;;;;;6214001;23;20206;-83
2023/05/25 11:39:10;;;;;;;2.67;1.53;;;;;;;;;;6213959;23;20277;-83
2023/05/25 11:41:52;;;;;;;3.73;1.33;;;;;;;;;;6213316;23;20238;-83
2023/05/25 11:44:32;;;;;;;5.50;1.83;;;;;;;;;;6213343;23;20183;-83
2023/05/25 11:47:03;;;;;;;4.43;1.57;;;;;;;;;;6214061;23;20239;-83
2023/05/25 11:49:32;;;;;;;3.63;2.40;;;;;;;;;;6213731;23;20261;-83
2023/05/25 11:52:05;;;;;;;2.90;2.10;;;;;;;;;;6213185;23;20190;-83
2023/05/25 11:54:35;;;;;;;1.30;1.20;;;;;;;;;;6213745;23;20206;-83
2023/05/25 11:57:05;;;;;;;2.13;1.17;;;;;;;;;;6214552;23;20175;-83
2023/05/25 11:59:38;;;;;;;3.83;1.60;;;;;;;;;;6213317;23;20175;-84
2023/05/25 12:02:08;;;;;;;10.57;3.83;;;;;;;;;;6213011;23;20171;-83
2023/05/25 12:04:37;;;;;;;4.17;1.57;;;;;;;;;;6213590;23;20182;-83
2023/05/25 12:07:08;;;;;;;6.90;2.57;;;;;;;;;;6213603;23;20240;-84
2023/05/25 12:09:41;;;;;;;8.70;2.00;;;;;;;;;;6212628;23;20193;-83
2023/05/25 12:12:10;;;;;;;10.13;2.57;;;;;;;;;;6213543;23;20174;-84
2023/05/25 12:14:47;;;;;;;5.67;2.37;;;;;;;;;;6213466;23;20259;-84
2023/05/25 12:17:17;;;;;;;8.47;2.77;;;;;;;;;;6213528;23;20170;-84
2023/05/25 12:19:46;;;;;;;1.93;1.40;;;;;;;;;;6213796;23;20171;-84
2023/05/25 12:22:17;;;;;;;4.53;2.10;;;;;;;;;;6213700;23;20175;-85
2023/05/25 12:24:50;;;;;;;8.97;4.40;;;;;;;;;;6213513;23;20237;-85
2023/05/25 12:27:21;;;;;;;2.17;1.57;;;;;;;;;;6213086;23;20245;-84
2023/05/25 12:29:51;;;;;;;4.70;1.90;;;;;;;;;;6213626;23;20170;-84
2023/05/25 12:32:22;;;;;;;5.47;1.90;;;;;;;;;;6213290;23;20171;-85
2023/05/25 12:34:52;;;;;;;4.97;2.90;;;;;;;;;;6213242;23;20180;-84
2023/05/25 12:37:22;;;;;;;7.00;2.23;;;;;;;;;;6213990;23;20221;-84
2023/05/25 12:39:52;;;;;;;8.17;2.07;;;;;;;;;;6213375;23;20170;-84
2023/05/25 12:42:30;;;;;;;10.53;2.27;;;;;;;;;;6212601;23;20213;-84
2023/05/25 12:45:15;;;;;;;4.40;2.67;;;;;;;;;;6213439;23;20227;-85
2023/05/25 12:48:03;;;;;;;5.03;1.57;;;;;;;;;;6212907;23;20204;-84
2023/05/25 12:51:00;;;;;;;3.37;1.63;;;;;;;;;;6205014;23;20183;-84
2023/05/25 12:53:57;;;;;;;3.90;2.03;;;;;;;;;;6213309;23;20221;-85
2023/05/25 12:57:05;;;;;;;3.10;2.00;;;;;;;;;;6187924;23;20213;-84
2023/05/25 13:00:09;;;;;;;5.50;2.23;;;;;;;;;;6211538;23;20182;-85
2023/05/25 13:03:15;;;;;;;9.80;3.23;;;;;;;;;;6213740;23;20184;-85
2023/05/25 13:13:37;;;;;;;2.00;1.87;;;;;;;;;;6190202;23;20182;-85
2023/05/25 13:16:47;;;;;;;11.00;2.90;;;;;;;;;;6195868;23;20182;-85
2023/05/25 13:19:40;;;;;;;7.70;2.97;;;;;;;;;;6214911;23;20201;-85
2023/05/25 13:22:45;;;;;;;2.80;1.77;;;;;;;;;;6202794;23;20181;-84
2023/05/25 13:25:35;;;;;;;6.13;1.90;;;;;;;;;;6214423;23;20190;-85
2023/05/25 13:28:37;;;;;;;;;;;;;;;;;;;;;
2023/05/25 13:38:36;;;;;;;2.77;1.37;;;;;;;;;;6157047;23;20187;-85
2023/05/25 13:45:01;;;;;;;5.37;2.20;;;;;;;;;;6152679;23;20172;-84
2023/05/25 13:47:47;;;;;;;2.20;1.97;;;;;;;;;;6061148;23;20189;-85
2023/05/25 13:53:49;;;;;;;6.53;2.37;;;;;;;;;;6181324;23;20286;-85
2023/05/25 14:00:04;;;;;;;9.40;2.83;;;;;;;;;;6176647;23;20183;-86
2023/05/25 14:03:01;;;;;;;7.10;2.23;;;;;;;;;;6181920;23;20179;-85
2023/05/25 14:05:47;;;;;;;2.07;1.23;;;;;;;;;;6181610;23;20179;-86
2023/05/25 14:08:29;;;;;;;4.20;2.23;;;;;;;;;;6181560;23;20225;-85
2023/05/25 14:11:51;;;;;;;6.43;3.00;;;;;;;;;;6173677;23;20266;-86
2023/05/25 14:14:50;;;;;;;4.53;2.13;;;;;;;;;;6177581;23;20260;-86
2023/05/25 14:21:05;;;;;;;9.80;2.83;;;;;;;;;;6201952;23;20185;-86
2023/05/25 14:26:29;;;;;;;8.30;3.03;;;;;;;;;;6199326;23;20254;-86
2023/05/25 14:29:16;;;;;;;2.37;1.47;;;;;;;;;;6213941;23;20229;-86
2023/05/25 14:31:48;;;;;;;6.30;2.93;;;;;;;;;;6214486;23;20174;-86
2023/05/25 14:34:52;;;;;;;8.57;3.17;;;;;;;;;;6214883;23;20190;-86
2023/05/25 14:38:07;;;;;;;7.47;2.60;;;;;;;;;;6214540;23;20174;-86
2023/05/25 14:41:14;;;;;;;11.20;4.23;;;;;;;;;;6121744;23;20222;-86
2023/05/25 14:44:12;;;;;;;2.83;2.30;;;;;;;;;;6201678;23;20213;-85
2023/05/25 14:46:43;;;;;;;8.53;2.90;;;;;;;;;;6214130;23;20176;-86
2023/05/25 14:49:23;;;;;;;3.97;2.17;;;;;;;;;;6214577;23;20185;-86
2023/05/25 14:51:52;;;;;;;4.33;2.13;;;;;;;;;;6214718;23;20174;-85
2023/05/25 14:54:24;;;;;;;4.20;2.47;;;;;;;;;;6213823;23;20225;-85
2023/05/25 14:56:53;;;;;;;1.70;1.60;;;;;;;;;;6214813;23;20258;-86
2023/05/25 14:59:27;;;;;;;4.77;2.63;;;;;;;;;;6214699;23;20217;-86
2023/05/25 15:01:57;;;;;;;7.07;2.07;;;;;;;;;;6214618;23;20232;-86
2023/05/25 15:04:32;;;;;;;5.27;2.97;;;;;;;;;;6214578;23;20174;-85
2023/05/25 15:07:02;;;;;;;2.93;1.80;;;;;;;;;;6214660;23;20228;-86
2023/05/25 15:09:32;;;;;;;4.73;2.47;;;;;;;;;;6214575;23;20178;-86
2023/05/25 15:12:01;;;;;;;6.93;3.07;;;;;;;;;;6213849;23;20170;-86
2023/05/25 15:14:31;;;;;;;5.50;2.63;;;;;;;;;;6214751;23;20258;-85
2023/05/25 15:17:01;;;;;;;6.60;2.63;;;;;;;;;;6214118;23;20203;-85
2023/05/25 15:19:30;;;;;;;4.90;1.60;;;;;;;;;;6213308;23;20186;-85
2023/05/25 15:21:59;;;;;;;5.70;3.47;;;;;;;;;;6214590;23;20185;-85
2023/05/25 15:24:29;;;;;;;8.63;2.53;;;;;;;;;;6214215;23;20242;-85
2023/05/25 15:26:58;;;;;;;4.17;3.27;;;;;;;;;;6214306;23;20225;-85
2023/05/25 15:29:29;;;;;;;4.33;2.37;;;;;;;;;;6213848;23;20256;-85
2023/05/25 15:31:59;;;;;;;2.83;1.63;;;;;;;;;;6213887;23;20197;-85
2023/05/25 15:34:31;;;;;;;4.30;3.43;;;;;;;;;;6214558;23;20268;-85
2023/05/25 15:37:01;;;;;;;6.63;2.13;;;;;;;;;;6214898;23;20176;-86
2023/05/25 15:39:32;;;;;;;6.07;3.37;;;;;;;;;;6215762;23;20173;-86
2023/05/25 15:42:04;;;;;;;4.83;2.63;;;;;;;;;;6214290;23;20236;-85
2023/05/25 15:44:36;;;;;;;3.97;2.73;;;;;;;;;;6213622;23;20212;-85
2023/05/25 15:47:06;;;;;;;1.63;1.53;;;;;;;;;;6213988;23;20198;-85